Time;durP1;ratioP1;P1;durP2;ratioP2;P2;SDS_P1;SDS_P2;PMS_P1;PMS_P2;Temp;Humidity;BMP_temperature;BMP_pressure;BME280_temperature;BME280_humidity;BME280_pressure;Samples;Min_cycle;Max_cycle;Signal;HPM_P1;HPM_P2
2022/03/05 00:00:30;;;;;;;16.27;12.47;;;;;;;0.42;81.68;100536.16;5002763;28;20251;-53
2022/03/05 00:02:57;;;;;;;15.47;12.60;;;;;;;0.36;82.52;100534.25;4998403;28;20201;-55
2022/03/05 00:05:22;;;;;;;15.43;12.47;;;;;;;0.39;83.04;100534.38;4996309;28;20659;-55
2022/03/05 00:07:47;;;;;;;18.53;12.77;;;;;;;0.38;83.70;100541.97;5009375;28;20202;-55
2022/03/05 00:10:14;;;;;;;18.90;13.03;;;;;;;0.36;84.49;100530.88;5004616;28;20275;-54
2022/03/05 00:12:39;;;;;;;16.60;12.07;;;;;;;0.35;84.57;100529.97;5010898;28;20629;-56
2022/03/05 00:15:05;;;;;;;15.77;12.60;;;;;;;0.38;84.43;100527.56;5005138;28;20243;-55
2022/03/05 00:17:31;;;;;;;16.97;12.10;;;;;;;0.33;84.84;100523.09;5004650;28;20188;-55
2022/03/05 00:19:56;;;;;;;16.23;12.30;;;;;;;0.31;85.28;100528.13;5001780;28;20195;-55
2022/03/05 00:22:22;;;;;;;14.53;11.53;;;;;;;0.29;85.07;100525.53;5001952;28;20640;-55
2022/03/05 00:24:47;;;;;;;18.33;13.33;;;;;;;0.16;85.54;100528.44;5001179;28;20213;-54
2022/03/05 00:27:12;;;;;;;16.20;12.90;;;;;;;0.07;86.05;100521.34;5001212;28;20197;-54
2022/03/05 00:29:38;;;;;;;16.63;12.20;;;;;;;0.07;86.26;100523.03;5004725;28;20252;-54
2022/03/05 00:32:04;;;;;;;15.23;12.07;;;;;;;0.09;86.16;100521.38;5008048;28;20204;-54
2022/03/05 00:34:29;;;;;;;17.87;12.97;;;;;;;0.04;85.92;100528.00;5004109;28;20943;-54
2022/03/05 00:36:54;;;;;;;19.53;12.47;;;;;;;-0.01;85.05;100533.75;5011958;28;20191;-54
2022/03/05 00:39:20;;;;;;;17.70;13.23;;;;;;;-0.04;84.53;100527.69;5001516;28;20625;-53
2022/03/05 00:41:45;;;;;;;16.07;12.80;;;;;;;-0.11;84.76;100526.59;4998720;28;20315;-56
2022/03/05 00:44:11;;;;;;;14.70;12.10;;;;;;;-0.22;85.00;100525.28;5015869;28;20301;-53
2022/03/05 00:46:36;;;;;;;14.97;12.70;;;;;;;-0.31;85.77;100528.38;5003691;28;20447;-56
2022/03/05 00:49:02;;;;;;;17.07;12.50;;;;;;;-0.37;86.38;100535.75;5002104;28;20682;-54
2022/03/05 00:51:27;;;;;;;16.20;12.00;;;;;;;-0.40;86.51;100530.53;5003487;28;20198;-53
2022/03/05 00:53:52;;;;;;;17.50;13.03;;;;;;;-0.42;86.78;100539.78;5004814;28;20200;-54
2022/03/05 00:56:18;;;;;;;15.83;12.00;;;;;;;-0.50;86.88;100540.34;5003721;28;20248;-55
2022/03/05 00:58:43;;;;;;;14.53;11.60;;;;;;;-0.54;87.23;100535.09;4998500;28;20195;-54
2022/03/05 01:01:09;;;;;;;13.70;11.37;;;;;;;-0.59;87.54;100536.56;5000915;28;20187;-55
2022/03/05 01:03:34;;;;;;;14.90;11.30;;;;;;;-0.66;87.67;100540.53;5005579;28;20205;-54
2022/03/05 01:06:00;;;;;;;14.00;10.77;;;;;;;-0.74;88.21;100541.88;5005175;28;20225;-54
2022/03/05 01:08:26;;;;;;;13.53;11.70;;;;;;;-0.82;88.67;100547.53;5004570;28;20252;-54
2022/03/05 01:10:51;;;;;;;14.73;11.23;;;;;;;-0.86;88.84;100545.66;5002158;28;20666;-53
2022/03/05 01:13:16;;;;;;;14.53;10.80;;;;;;;-0.92;89.04;100543.75;4998530;28;20235;-54
2022/03/05 01:15:42;;;;;;;13.80;11.07;;;;;;;-1.00;88.94;100540.03;5004069;28;20201;-54
2022/03/05 01:18:07;;;;;;;13.83;10.77;;;;;;;-1.07;88.99;100538.00;5005731;28;20200;-54
2022/03/05 01:20:32;;;;;;;14.20;11.20;;;;;;;-1.13;89.33;100542.81;5002910;28;20268;-55
2022/03/05 01:22:58;;;;;;;14.10;11.13;;;;;;;-1.21;89.74;100532.34;5003426;28;20629;-54
2022/03/05 01:25:23;;;;;;;13.60;10.77;;;;;;;-1.27;90.03;100530.41;4998742;28;20218;-53
2022/03/05 01:27:49;;;;;;;14.23;11.23;;;;;;;-1.34;90.40;100536.03;5009352;28;20555;-53
2022/03/05 01:30:14;;;;;;;13.50;10.80;;;;;;;-1.43;90.35;100535.63;4999617;28;20230;-55
2022/03/05 01:32:40;;;;;;;12.87;10.83;;;;;;;-1.51;90.74;100531.88;4999740;28;20192;-55
2022/03/05 01:35:06;;;;;;;13.00;10.00;;;;;;;-1.59;90.84;100529.00;5002371;28;20703;-54
2022/03/05 01:37:31;;;;;;;14.67;10.80;;;;;;;-1.67;90.99;100531.22;5001450;28;20506;-55
2022/03/05 01:39:57;;;;;;;13.70;10.27;;;;;;;-1.73;91.27;100534.34;5004264;28;20273;-55
2022/03/05 01:42:24;;;;;;;13.90;11.40;;;;;;;-1.78;91.36;100524.78;4999352;28;20192;-56
2022/03/05 01:44:49;;;;;;;14.47;11.30;;;;;;;-1.84;91.51;100533.84;5005113;28;20234;-55
2022/03/05 01:47:15;;;;;;;15.37;11.17;;;;;;;-1.90;91.82;100542.84;5001567;28;20236;-53
2022/03/05 01:49:40;;;;;;;14.87;10.70;;;;;;;-1.95;91.71;100536.69;5007191;28;20228;-55
2022/03/05 01:52:06;;;;;;;14.00;11.50;;;;;;;-1.98;91.91;100539.13;5002410;28;20536;-55
2022/03/05 01:54:31;;;;;;;14.13;11.30;;;;;;;-2.04;92.19;100535.50;5001369;28;20216;-54
2022/03/05 01:56:59;;;;;;;16.57;12.17;;;;;;;-2.08;92.10;100533.59;5001817;28;20595;-55
2022/03/05 01:59:24;;;;;;;15.57;11.37;;;;;;;-2.15;92.32;100537.53;5000870;28;20970;-54
2022/03/05 02:01:50;;;;;;;15.07;11.10;;;;;;;-2.19;92.26;100543.25;5002983;28;20598;-54
2022/03/05 02:04:15;;;;;;;13.77;10.47;;;;;;;-2.22;92.50;100534.63;5003912;28;20750;-54
2022/03/05 02:06:41;;;;;;;14.93;11.10;;;;;;;-2.28;92.74;100536.91;5010176;28;20246;-55
2022/03/05 02:09:06;;;;;;;14.97;11.73;;;;;;;-2.33;92.87;100542.59;5021544;28;20197;-54
2022/03/05 02:11:32;;;;;;;12.70;10.27;;;;;;;-2.36;92.87;100534.00;5008835;28;20226;-55
2022/03/05 02:13:58;;;;;;;13.70;10.63;;;;;;;-2.39;93.09;100529.63;5009788;28;20211;-54
2022/03/05 02:16:25;;;;;;;14.73;11.70;;;;;;;-2.40;93.32;100532.09;5008478;28;20183;-54
2022/03/05 02:18:52;;;;;;;15.40;11.80;;;;;;;-2.45;93.33;100532.75;4998625;28;20195;-54
2022/03/05 02:21:18;;;;;;;15.90;11.10;;;;;;;-2.47;93.62;100534.34;5014864;28;20185;-54
2022/03/05 02:23:44;;;;;;;13.03;10.70;;;;;;;-2.50;93.67;100536.75;4999488;28;20197;-54
2022/03/05 02:26:09;;;;;;;15.00;10.90;;;;;;;-2.49;94.26;100532.53;5004187;28;20196;-54
2022/03/05 02:28:36;;;;;;;16.70;11.63;;;;;;;-2.52;94.23;100535.81;4997207;28;20216;-54
2022/03/05 02:31:02;;;;;;;13.27;11.10;;;;;;;-2.55;94.36;100533.09;5013358;28;20333;-53
2022/03/05 02:33:27;;;;;;;14.73;11.23;;;;;;;-2.58;94.57;100529.56;4998594;28;20287;-54
2022/03/05 02:35:53;;;;;;;14.77;11.20;;;;;;;-2.61;94.63;100527.75;5001038;28;20223;-55
2022/03/05 02:38:21;;;;;;;15.00;11.43;;;;;;;-2.64;94.82;100540.25;4999699;28;20194;-54
2022/03/05 02:40:50;;;;;;;14.07;10.93;;;;;;;-2.68;95.09;100534.16;5000666;28;20200;-54
2022/03/05 02:43:16;;;;;;;15.33;11.30;;;;;;;-2.73;95.16;100530.56;5011969;28;20224;-53
2022/03/05 02:45:42;;;;;;;17.53;12.53;;;;;;;-2.74;95.13;100538.06;5010154;28;20264;-55
2022/03/05 02:48:10;;;;;;;15.73;12.17;;;;;;;-2.81;95.72;100541.97;5004324;28;20193;-53
2022/03/05 02:50:36;;;;;;;16.07;11.77;;;;;;;-2.83;95.94;100535.94;5013015;28;20279;-54
2022/03/05 02:53:02;;;;;;;16.80;12.60;;;;;;;-2.86;96.30;100545.94;5012114;28;20191;-54
2022/03/05 02:55:27;;;;;;;16.50;11.33;;;;;;;-2.89;96.12;100536.53;5008094;28;20212;-55
2022/03/05 02:57:52;;;;;;;17.30;11.50;;;;;;;-2.93;96.36;100542.22;5000928;28;20191;-55
2022/03/05 03:00:18;;;;;;;17.07;12.53;;;;;;;-2.97;96.59;100532.75;5005653;28;20640;-54
2022/03/05 03:02:46;;;;;;;18.20;13.20;;;;;;;-2.97;96.80;100540.34;5004243;28;20193;-54
2022/03/05 03:05:16;;;;;;;17.40;12.07;;;;;;;-3.03;96.72;100546.00;5001396;28;20647;-54
2022/03/05 03:07:42;;;;;;;14.30;11.37;;;;;;;-3.08;96.93;100539.81;5005183;28;20204;-53
2022/03/05 03:10:09;;;;;;;14.90;11.97;;;;;;;-3.11;97.01;100539.66;4994057;28;20649;-54
2022/03/05 03:12:35;;;;;;;15.23;11.87;;;;;;;-3.12;97.36;100538.78;5000450;28;20204;-54
2022/03/05 03:15:01;;;;;;;15.67;11.53;;;;;;;-3.12;97.63;100541.31;5007724;28;20211;-54
2022/03/05 03:17:27;;;;;;;17.60;12.27;;;;;;;-3.12;97.99;100541.31;5003150;28;20191;-55
2022/03/05 03:19:52;;;;;;;16.10;12.20;;;;;;;-3.16;97.89;100547.03;5004163;28;20641;-55
2022/03/05 03:22:18;;;;;;;18.27;11.83;;;;;;;-3.21;97.84;100540.84;5003325;28;20564;-54
2022/03/05 03:24:44;;;;;;;15.70;12.10;;;;;;;-3.24;97.91;100539.03;5006450;28;20208;-54
2022/03/05 03:27:09;;;;;;;16.10;12.30;;;;;;;-3.27;97.89;100545.63;5001888;28;20286;-54
2022/03/05 03:29:35;;;;;;;17.10;12.57;;;;;;;-3.29;98.10;100544.66;5004648;28;20295;-54
2022/03/05 03:32:00;;;;;;;15.20;12.13;;;;;;;-3.30;98.17;100545.44;4999551;28;20664;-54
2022/03/05 03:34:25;;;;;;;14.93;11.60;;;;;;;-3.33;98.29;100546.16;5010907;28;20200;-54
2022/03/05 03:36:51;;;;;;;14.63;11.77;;;;;;;-3.34;98.28;100546.06;5003190;28;20693;-54
2022/03/05 03:39:17;;;;;;;15.17;11.87;;;;;;;-3.37;98.46;100549.31;5001098;28;20226;-54
2022/03/05 03:41:42;;;;;;;13.97;11.40;;;;;;;-3.40;98.48;100551.69;5002488;28;20197;-55
2022/03/05 03:44:08;;;;;;;14.23;11.80;;;;;;;-3.44;98.47;100548.13;5007318;28;20204;-55
2022/03/05 03:46:33;;;;;;;17.87;12.93;;;;;;;-3.44;98.66;100552.31;5016430;28;20607;-55
2022/03/05 03:48:59;;;;;;;14.60;11.33;;;;;;;-3.47;98.69;100559.75;5003808;28;20201;-54
2022/03/05 03:51:24;;;;;;;14.57;11.07;;;;;;;-3.48;98.83;100560.56;5008204;28;20196;-54
2022/03/05 03:53:49;;;;;;;14.93;11.77;;;;;;;-3.49;98.73;100556.28;5002606;28;20627;-54
2022/03/05 03:56:15;;;;;;;14.30;11.90;;;;;;;-3.50;98.89;100557.94;5004025;28;20188;-54
2022/03/05 03:58:41;;;;;;;16.97;12.10;;;;;;;-3.52;99.04;100560.38;5003611;28;20177;-55
2022/03/05 04:01:07;;;;;;;15.20;12.30;;;;;;;-3.53;99.21;100563.72;5005327;28;20567;-55
2022/03/05 04:03:32;;;;;;;14.33;11.33;;;;;;;-3.55;99.08;100560.22;5012565;28;20198;-53
2022/03/05 04:05:57;;;;;;;14.13;12.20;;;;;;;-3.55;99.20;100561.88;5002135;28;20623;-55
2022/03/05 04:08:41;;;;;;;14.53;11.73;;;;;;;-3.57;99.21;100566.84;5000843;28;20219;-54
2022/03/05 04:11:14;;;;;;;14.17;11.80;;;;;;;-3.60;99.30;100565.84;5010318;28;20185;-54
2022/03/05 04:13:40;;;;;;;14.13;11.27;;;;;;;-3.62;99.40;100569.94;5009515;28;20185;-54
2022/03/05 04:16:06;;;;;;;14.27;12.07;;;;;;;-3.64;99.32;100568.97;5001411;28;20266;-54
2022/03/05 04:18:32;;;;;;;18.90;12.53;;;;;;;-3.64;99.71;100563.94;5000999;28;20342;-54
2022/03/05 04:20:58;;;;;;;15.27;11.70;;;;;;;-3.66;99.74;100576.50;5007729;28;20295;-54
2022/03/05 04:23:23;;;;;;;15.33;12.37;;;;;;;-3.70;99.84;100570.38;5004951;28;20213;-54
2022/03/05 04:25:48;;;;;;;16.27;12.37;;;;;;;-3.73;99.86;100575.31;5004389;28;20230;-53
2022/03/05 04:28:14;;;;;;;16.43;12.63;;;;;;;-3.70;100.00;100564.47;5003397;28;20212;-54
2022/03/05 04:30:39;;;;;;;19.03;13.97;;;;;;;-3.69;100.00;100571.28;5004988;28;20655;-54
2022/03/05 04:33:05;;;;;;;16.93;13.87;;;;;;;-3.71;100.00;100575.38;4998069;28;20200;-53
2022/03/05 04:35:30;;;;;;;15.80;12.97;;;;;;;-3.74;100.00;100567.63;5000183;28;20265;-53
2022/03/05 04:37:56;;;;;;;16.10;13.23;;;;;;;-3.76;100.00;100574.25;5000661;28;20250;-53
2022/03/05 04:40:22;;;;;;;16.20;13.13;;;;;;;-3.81;100.00;100580.75;5003851;28;20185;-56
2022/03/05 04:42:47;;;;;;;17.53;13.70;;;;;;;-3.83;100.00;100581.53;5003903;28;20192;-55
2022/03/05 04:45:14;;;;;;;17.77;13.27;;;;;;;-3.87;100.00;100582.13;5000462;28;20263;-55
2022/03/05 04:47:40;;;;;;;17.27;13.10;;;;;;;-3.93;100.00;100581.78;5001831;28;20196;-54
2022/03/05 04:50:07;;;;;;;14.57;12.27;;;;;;;-3.95;100.00;100592.63;5003178;28;20205;-55
2022/03/05 04:52:32;;;;;;;16.43;13.07;;;;;;;-3.99;100.00;100594.13;5007575;28;20659;-54
2022/03/05 04:54:58;;;;;;;15.47;12.63;;;;;;;-4.02;100.00;100594.84;5007279;28;20208;-55
2022/03/05 04:57:24;;;;;;;14.77;11.50;;;;;;;-4.06;100.00;100592.91;5006232;28;20189;-55
2022/03/05 04:59:50;;;;;;;16.47;12.73;;;;;;;-4.08;100.00;100596.16;5003971;28;21014;-52
2022/03/05 05:02:16;;;;;;;14.47;12.13;;;;;;;-4.11;100.00;100593.44;5004550;28;20188;-53
2022/03/05 05:04:41;;;;;;;14.27;12.30;;;;;;;-4.14;100.00;100595.03;4998036;28;20211;-55
2022/03/05 05:07:07;;;;;;;14.50;11.50;;;;;;;-4.15;100.00;100595.81;5000626;28;20655;-54
2022/03/05 05:09:32;;;;;;;15.03;12.20;;;;;;;-4.14;100.00;100596.66;5000341;28;20247;-54
2022/03/05 05:11:58;;;;;;;15.10;12.73;;;;;;;-4.14;100.00;100589.06;4998380;28;20182;-54
2022/03/05 05:14:23;;;;;;;15.57;12.60;;;;;;;-4.15;100.00;100603.38;5001653;28;20208;-54
2022/03/05 05:16:48;;;;;;;15.57;11.93;;;;;;;-4.15;100.00;100605.91;4997887;28;20193;-54
2022/03/05 05:19:29;;;;;;;16.30;13.13;;;;;;;-4.15;100.00;100599.97;4997991;28;20276;-54
2022/03/05 05:21:59;;;;;;;16.33;12.47;;;;;;;-4.13;100.00;100603.47;5000971;28;20644;-54
2022/03/05 05:24:26;;;;;;;15.93;12.97;;;;;;;-4.14;100.00;100607.66;5004320;28;20429;-54
2022/03/05 05:26:53;;;;;;;14.80;11.60;;;;;;;-4.14;100.00;100600.06;5002936;28;20723;-53
2022/03/05 05:29:18;;;;;;;15.63;12.77;;;;;;;-4.18;100.00;100603.22;5004943;28;20299;-54
2022/03/05 05:31:44;;;;;;;15.20;12.73;;;;;;;-4.18;100.00;100607.41;5002230;28;20219;-55
2022/03/05 05:34:10;;;;;;;16.47;13.23;;;;;;;-4.18;100.00;100605.75;5003003;28;20212;-55
2022/03/05 05:36:38;;;;;;;16.37;12.97;;;;;;;-4.18;100.00;100604.88;5001643;28;20184;-54
2022/03/05 05:39:04;;;;;;;17.03;13.03;;;;;;;-4.20;100.00;100604.78;4997140;28;20185;-52
2022/03/05 05:41:29;;;;;;;15.80;13.30;;;;;;;-4.23;100.00;100607.13;5010239;28;20203;-53
2022/03/05 05:43:55;;;;;;;15.87;13.00;;;;;;;-4.25;100.00;100620.47;5000607;28;20527;-54
2022/03/05 05:46:20;;;;;;;15.87;13.47;;;;;;;-4.29;100.00;100622.81;5011508;28;20185;-54
2022/03/05 05:48:45;;;;;;;14.80;12.27;;;;;;;-4.30;100.00;100615.16;5000027;28;20279;-54
2022/03/05 05:51:11;;;;;;;17.33;12.93;;;;;;;-4.29;100.00;100619.44;5001351;28;20194;-54
2022/03/05 05:53:36;;;;;;;16.03;12.97;;;;;;;-4.25;100.00;100617.94;5011732;28;20192;-53
2022/03/05 05:56:02;;;;;;;17.53;13.13;;;;;;;-4.18;100.00;100623.44;5006615;28;20212;-55
2022/03/05 05:58:27;;;;;;;15.53;12.67;;;;;;;-4.07;100.00;100628.19;5003618;28;20193;-53
2022/03/05 06:00:52;;;;;;;16.00;12.23;;;;;;;-3.96;100.00;100628.81;5004237;28;20189;-53
2022/03/05 06:03:18;;;;;;;17.20;12.73;;;;;;;-3.80;100.00;100626.34;5010043;28;20193;-53
2022/03/05 06:05:43;;;;;;;17.03;12.60;;;;;;;-3.55;100.00;100625.13;4996901;28;20200;-56
2022/03/05 06:08:08;;;;;;;14.53;11.17;;;;;;;-3.32;100.00;100633.06;5004508;28;20193;-54
2022/03/05 06:10:34;;;;;;;13.90;11.70;;;;;;;-3.17;98.93;100626.28;5002209;28;20264;-54
2022/03/05 06:13:00;;;;;;;14.03;11.63;;;;;;;-3.02;97.83;100638.00;5004181;28;20188;-54
2022/03/05 06:15:25;;;;;;;16.97;11.33;;;;;;;-2.84;96.04;100633.00;5002795;28;20676;-54
2022/03/05 06:17:52;;;;;;;14.93;11.10;;;;;;;-2.74;95.72;100636.88;5004102;28;20176;-54
2022/03/05 06:20:18;;;;;;;15.57;10.83;;;;;;;-2.65;95.16;100633.16;5003642;28;20211;-54
2022/03/05 06:22:43;;;;;;;16.43;12.33;;;;;;;-2.62;94.75;100635.84;4999406;28;20208;-54
2022/03/05 06:25:09;;;;;;;27.23;18.37;;;;;;;-2.62;94.42;100637.47;5000561;28;20235;-54
2022/03/05 06:27:34;;;;;;;33.33;21.37;;;;;;;-2.70;94.47;100641.31;4998929;28;20204;-55
2022/03/05 06:30:01;;;;;;;47.23;29.77;;;;;;;-2.78;94.83;100640.91;4999383;28;20316;-54
2022/03/05 06:32:27;;;;;;;17.93;13.63;;;;;;;-2.73;94.74;100647.09;5001309;28;20582;-53
2022/03/05 06:34:54;;;;;;;12.77;10.43;;;;;;;-2.57;94.24;100647.88;4996103;28;20215;-55
2022/03/05 06:37:21;;;;;;;17.43;12.50;;;;;;;-2.38;93.61;100642.91;4996177;28;20189;-54
2022/03/05 06:39:46;;;;;;;17.37;13.67;;;;;;;-2.08;91.79;100646.88;4999530;28;20721;-54
2022/03/05 06:42:11;;;;;;;18.50;11.47;;;;;;;-1.83;91.05;100643.84;4996595;28;20271;-54
2022/03/05 06:44:37;;;;;;;14.60;11.57;;;;;;;-1.64;90.16;100649.75;4998682;28;20208;-53
2022/03/05 06:47:04;;;;;;;13.80;10.90;;;;;;;-1.48;89.84;100651.34;5008610;28;20193;-55
2022/03/05 06:49:29;;;;;;;13.87;10.60;;;;;;;-1.27;89.07;100649.75;5013023;28;20237;-54
2022/03/05 06:51:55;;;;;;;16.93;10.77;;;;;;;-1.23;88.51;100648.25;5001904;28;20199;-54
2022/03/05 06:54:20;;;;;;;14.63;10.70;;;;;;;-1.15;88.36;100664.69;5004486;28;20803;-54
2022/03/05 06:56:45;;;;;;;13.17;10.80;;;;;;;-1.02;88.22;100657.59;5008550;28;20185;-54
2022/03/05 06:59:11;;;;;;;13.20;9.67;;;;;;;-0.94;87.29;100654.59;5012234;28;20190;-54
2022/03/05 07:01:36;;;;;;;14.23;10.43;;;;;;;-0.85;86.73;100669.38;5002853;28;20193;-55
2022/03/05 07:04:01;;;;;;;13.97;10.80;;;;;;;-0.74;86.18;100669.84;5005151;28;20204;-55
2022/03/05 07:06:27;;;;;;;12.13;9.63;;;;;;;-0.65;85.72;100666.84;5003862;28;20200;-54
2022/03/05 07:08:53;;;;;;;12.47;10.23;;;;;;;-0.60;84.93;100672.09;5003484;28;20310;-54
2022/03/05 07:11:18;;;;;;;14.87;9.93;;;;;;;-0.55;84.48;100675.72;4994280;28;20262;-53
2022/03/05 07:13:44;;;;;;;13.70;10.40;;;;;;;-0.56;83.88;100682.47;5005114;28;20202;-53
2022/03/05 07:16:09;;;;;;;13.73;10.23;;;;;;;-0.54;83.25;100674.94;5000356;28;20569;-54
2022/03/05 07:18:35;;;;;;;11.00;9.83;;;;;;;-0.48;83.69;100670.97;5002740;28;20224;-54
2022/03/05 07:21:00;;;;;;;14.57;9.97;;;;;;;-0.39;83.77;100667.06;5005312;28;20189;-54
2022/03/05 07:23:25;;;;;;;11.10;9.40;;;;;;;-0.34;83.18;100680.84;5010065;28;20188;-55
2022/03/05 07:25:51;;;;;;;11.50;8.93;;;;;;;-0.32;82.86;100669.91;5004984;28;20205;-55
2022/03/05 07:28:16;;;;;;;11.73;9.50;;;;;;;-0.23;82.24;100674.50;4996581;28;20194;-54
2022/03/05 07:30:42;;;;;;;12.03;8.80;;;;;;;-0.15;82.06;100679.91;5019831;28;20201;-54
2022/03/05 07:33:08;;;;;;;12.27;9.80;;;;;;;-0.05;82.17;100688.81;5008965;28;20236;-54
2022/03/05 07:35:33;;;;;;;11.37;9.00;;;;;;;0.00;82.06;100677.16;5006738;28;20218;-55
2022/03/05 07:37:59;;;;;;;13.60;9.20;;;;;;;0.06;82.52;100681.59;4998318;28;20270;-55
2022/03/05 07:40:24;;;;;;;10.37;8.60;;;;;;;0.15;82.75;100681.97;5001201;28;20252;-56
2022/03/05 07:42:49;;;;;;;12.47;9.10;;;;;;;0.24;82.33;100678.91;5001968;28;20239;-55
2022/03/05 07:45:15;;;;;;;11.27;9.30;;;;;;;0.32;82.57;100684.31;5001509;28;20219;-54
2022/03/05 07:47:43;;;;;;;11.13;9.03;;;;;;;0.38;82.66;100679.47;5011545;28;20238;-55
2022/03/05 07:50:09;;;;;;;11.53;8.70;;;;;;;0.42;82.01;100688.94;5004555;28;20213;-54
2022/03/05 07:52:35;;;;;;;10.77;8.27;;;;;;;0.46;79.20;100688.25;5008749;28;20186;-54
2022/03/05 07:55:00;;;;;;;9.70;7.93;;;;;;;0.53;78.30;100691.91;5000811;28;20707;-55
2022/03/05 07:57:26;;;;;;;9.27;7.50;;;;;;;0.60;76.80;100699.84;5002015;28;20209;-53
2022/03/05 07:59:51;;;;;;;11.63;8.43;;;;;;;0.70;76.45;100695.97;5007138;28;20262;-53
2022/03/05 08:02:17;;;;;;;9.30;7.60;;;;;;;0.79;76.43;100697.13;5015485;28;20195;-54
2022/03/05 08:04:44;;;;;;;10.80;8.13;;;;;;;0.89;76.80;100696.66;5001886;28;20759;-54
2022/03/05 08:07:09;;;;;;;13.50;8.80;;;;;;;0.99;76.20;100702.94;5005909;28;20208;-54
2022/03/05 08:09:38;;;;;;;10.97;8.47;;;;;;;1.08;76.26;100708.41;5005675;28;20325;-54
2022/03/05 08:12:04;;;;;;;12.33;8.63;;;;;;;1.20;76.29;100708.84;5004521;28;20185;-54
2022/03/05 08:14:30;;;;;;;11.00;8.40;;;;;;;1.24;75.62;100699.59;5017295;28;20269;-54
2022/03/05 08:16:55;;;;;;;14.00;8.70;;;;;;;1.33;75.46;100705.06;5009506;28;20226;-53
2022/03/05 08:19:20;;;;;;;11.53;8.80;;;;;;;1.40;74.92;100706.13;5008792;28;20196;-55
2022/03/05 08:21:46;;;;;;;10.47;8.33;;;;;;;1.54;74.83;100708.28;5002562;28;20185;-53
2022/03/05 08:24:11;;;;;;;11.90;8.70;;;;;;;1.63;75.04;100703.50;5007884;28;20218;-53
2022/03/05 08:26:37;;;;;;;12.57;9.27;;;;;;;1.66;73.83;100701.91;5007626;28;20581;-54
2022/03/05 08:29:03;;;;;;;11.13;9.60;;;;;;;1.78;73.64;100701.47;5002022;28;20214;-53
2022/03/05 08:31:31;;;;;;;12.80;10.03;;;;;;;1.89;73.77;100694.19;5012291;28;20188;-55
2022/03/05 08:33:58;;;;;;;11.50;9.73;;;;;;;1.93;73.26;100693.47;5007330;28;20191;-53
2022/03/05 08:36:30;;;;;;;11.07;9.80;;;;;;;2.05;73.47;100697.22;5004130;28;20217;-54
2022/03/05 08:38:56;;;;;;;12.40;9.90;;;;;;;2.13;73.43;100704.31;5004260;28;20705;-54
2022/03/05 08:41:22;;;;;;;11.97;10.53;;;;;;;2.19;72.87;100693.44;5004742;28;20652;-54
2022/03/05 08:43:47;;;;;;;14.07;11.30;;;;;;;2.37;73.22;100695.69;5006485;28;20231;-54
2022/03/05 08:46:13;;;;;;;10.97;9.77;;;;;;;2.49;73.11;100691.78;4998659;28;20219;-54
2022/03/05 08:48:38;;;;;;;12.73;10.80;;;;;;;2.56;73.34;100679.25;5003442;28;20211;-53
2022/03/05 08:51:03;;;;;;;12.63;10.17;;;;;;;2.64;73.03;100689.72;5006144;28;20189;-53
2022/03/05 08:53:29;;;;;;;13.60;11.63;;;;;;;2.74;73.20;100684.03;5005485;28;20291;-52
2022/03/05 08:55:55;;;;;;;14.13;11.73;;;;;;;2.87;72.18;100680.13;5003411;28;20211;-55
2022/03/05 08:58:21;;;;;;;12.77;11.30;;;;;;;2.95;72.78;100685.47;5002128;28;20193;-54
2022/03/05 09:00:47;;;;;;;10.20;8.40;;;;;;;2.96;68.72;100687.19;5008205;28;20684;-55
2022/03/05 09:03:12;;;;;;;9.90;8.37;;;;;;;3.14;69.90;100674.09;5027912;28;20286;-55
2022/03/05 09:05:38;;;;;;;10.43;8.73;;;;;;;3.29;69.82;100676.19;5004054;28;20321;-55
2022/03/05 09:08:04;;;;;;;9.80;8.27;;;;;;;3.42;68.09;100677.38;5001859;28;20264;-55
2022/03/05 09:10:29;;;;;;;8.77;7.33;;;;;;;3.55;68.00;100682.81;5002645;28;20594;-55
2022/03/05 09:12:55;;;;;;;10.83;8.53;;;;;;;3.64;67.01;100676.25;5007082;28;20277;-54
2022/03/05 09:15:20;;;;;;;10.77;8.50;;;;;;;3.84;67.58;100678.47;5003234;28;20231;-56
2022/03/05 09:17:49;;;;;;;10.07;8.60;;;;;;;3.93;66.91;100680.38;5004404;28;20655;-54
2022/03/05 09:20:14;;;;;;;11.23;9.33;;;;;;;3.91;66.76;100675.19;5007082;28;20647;-54
2022/03/05 09:22:40;;;;;;;11.97;9.97;;;;;;;4.00;66.46;100669.44;4995952;28;20234;-54
2022/03/05 09:25:06;;;;;;;10.90;9.33;;;;;;;4.01;65.11;100678.00;4999410;28;20686;-54
2022/03/05 09:27:33;;;;;;;11.53;9.87;;;;;;;3.94;65.51;100669.28;5005047;28;20188;-55
2022/03/05 09:29:58;;;;;;;10.50;8.93;;;;;;;3.96;64.75;100672.75;4995086;28;20561;-54
2022/03/05 09:32:24;;;;;;;11.83;9.27;;;;;;;3.99;65.41;100664.28;5005348;28;20177;-55
2022/03/05 09:34:49;;;;;;;12.40;10.60;;;;;;;3.98;65.75;100676.22;4998964;28;20215;-54
2022/03/05 09:37:14;;;;;;;14.17;11.90;;;;;;;4.07;67.51;100673.00;5004874;28;20202;-54
2022/03/05 09:39:40;;;;;;;13.20;11.37;;;;;;;4.17;67.54;100671.53;5001541;28;20180;-54
2022/03/05 09:42:05;;;;;;;14.83;11.20;;;;;;;4.20;66.78;100680.16;5005826;28;20276;-53
2022/03/05 09:44:31;;;;;;;14.83;12.23;;;;;;;4.22;66.19;100683.63;5010026;28;20204;-55
2022/03/05 09:46:59;;;;;;;14.97;11.97;;;;;;;4.20;65.42;100676.75;4997614;28;20288;-54
2022/03/05 09:49:26;;;;;;;14.87;11.23;;;;;;;4.25;66.49;100672.56;5018561;28;20616;-54
2022/03/05 09:51:53;;;;;;;13.13;11.27;;;;;;;4.31;64.91;100667.59;5007077;28;20181;-54
2022/03/05 09:54:18;;;;;;;13.30;11.03;;;;;;;4.36;65.69;100667.69;5019513;28;20715;-53
2022/03/05 09:56:43;;;;;;;12.73;10.20;;;;;;;4.43;64.61;100662.75;5005159;28;20185;-54
2022/03/05 09:59:10;;;;;;;11.93;9.33;;;;;;;4.53;63.64;100663.81;5006260;28;20655;-56
2022/03/05 10:01:36;;;;;;;9.93;8.57;;;;;;;4.55;61.67;100669.84;5005081;28;20546;-54
2022/03/05 10:04:02;;;;;;;12.23;8.97;;;;;;;4.64;62.15;100664.06;5001462;28;20201;-53
2022/03/05 10:06:28;;;;;;;11.47;9.67;;;;;;;4.73;nan;100668.50;5005112;28;20671;-55
2022/03/05 10:08:57;;;;;;;12.30;9.30;;;;;;;4.84;62.92;100659.34;5003592;28;20212;-55
2022/03/05 10:11:38;;;;;;;9.93;8.03;;;;;;;4.87;60.62;100664.53;5009741;28;20664;-55
2022/03/05 10:14:19;;;;;;;10.07;8.77;;;;;;;5.00;61.03;100660.50;5005114;28;20207;-55
2022/03/05 10:16:44;;;;;;;13.53;9.30;;;;;;;5.02;60.91;100666.53;5002358;28;20184;-54
2022/03/05 10:19:23;;;;;;;10.57;8.50;;;;;;;5.05;60.33;100655.47;5009246;28;20187;-61
2022/03/05 10:21:59;;;;;;;10.10;8.53;;;;;;;5.11;59.97;100668.41;5014612;28;20184;-56
2022/03/05 10:24:36;;;;;;;19.47;9.80;;;;;;;5.19;60.02;100656.63;5012262;28;20207;-53
2022/03/05 10:27:03;;;;;;;10.27;8.27;;;;;;;5.22;57.50;100676.31;4996005;28;20186;-56
2022/03/05 10:29:37;;;;;;;10.40;9.20;;;;;;;5.11;58.42;100670.13;4997543;28;20222;-53
2022/03/05 10:32:08;;;;;;;10.97;9.23;;;;;;;5.13;59.91;100651.34;4998949;28;20195;-56
2022/03/05 10:34:45;;;;;;;10.40;8.73;;;;;;;5.24;59.23;100668.63;5002498;28;20200;-53
2022/03/05 10:37:11;;;;;;;8.20;6.97;;;;;;;5.24;56.13;100651.56;4998943;28;20627;-56
2022/03/05 10:39:37;;;;;;;10.97;9.10;;;;;;;5.30;59.74;100655.94;5000619;28;20230;-55
2022/03/05 10:42:25;;;;;;;9.90;8.27;;;;;;;5.34;58.60;100644.91;5021811;28;20190;-55
2022/03/05 10:45:08;;;;;;;9.77;7.73;;;;;;;5.53;58.05;100660.59;5000820;28;20257;-55
2022/03/05 10:47:47;;;;;;;8.90;7.60;;;;;;;5.49;55.35;100646.84;5009846;28;20659;-55
2022/03/05 10:50:18;;;;;;;13.47;9.47;;;;;;;5.64;57.65;100659.97;4999042;28;20244;-55
2022/03/05 10:52:45;;;;;;;14.47;11.27;;;;;;;5.67;59.76;100650.59;5000090;28;20193;-55
2022/03/05 10:55:19;;;;;;;9.73;8.40;;;;;;;5.88;57.70;100655.22;5009296;28;20212;-54
2022/03/05 10:58:01;;;;;;;8.73;7.83;;;;;;;5.90;57.22;100645.84;5001095;28;20188;-54
2022/03/05 11:00:28;;;;;;;9.63;8.30;;;;;;;6.01;57.53;100646.03;5012252;28;20174;-54
2022/03/05 11:02:56;;;;;;;9.27;7.67;;;;;;;5.97;56.09;100645.09;5005329;28;20190;-54
2022/03/05 11:05:22;;;;;;;8.07;7.27;;;;;;;5.94;54.66;100643.34;4998582;28;20227;-54
2022/03/05 11:07:51;;;;;;;9.30;7.90;;;;;;;6.05;55.77;100628.13;5003368;28;20246;-54
2022/03/05 11:10:18;;;;;;;14.90;7.70;;;;;;;6.09;55.99;100655.59;5005143;28;20211;-55